Knob Noster, MO (65305)

6:11 AM CST on February 10, 2016 (GMT -0600)
Rolling Hills = Jay's Weather Station | | Change Station
CLOSE
Current Station
Personal Weather Station
Location: Warrensburg, MO
Elevation: 863 ft
Nearby Weather Stations

Elev 863 ft 38.73 °N, 93.66 °W | Updated 2 minutes ago

Overcast
Overcast
20.5 °F
Feels Like 20 °F
N
2.7
Wind Variable Wind from South

Today
High -- | Low -- °F
--% Chance of Precip.
Yesterday
High -- | Low -- °F
Precip. -- in
Pressure 30.21 in
Visibility 10.0 miles
Clouds Mostly Cloudy 4900 ft
Overcast 10000 ft
Windchill 20 °F
Dew Point 13 °F
Humidity 73%
Rainfall 0.00 in
Snow Depth Not available.
7:11 AM 5:45 PM
Waxing Crescent, 5% visible
METAR KSZL 101158Z 23005KT 10SM BKN049 OVC100 M07/M11 A3016 RMK AO2A SLP228 T10681109 11062 21084 58009
Pressure 30.21 in
Visibility 10.0 miles
Clouds Mostly Cloudy 4900 ft
Overcast 10000 ft
Windchill 20 °F
Dew Point 13 °F
Humidity 73%
Rainfall 0.00 in
Snow Depth Not available.
7:11 AM 5:45 PM
Waxing Crescent, 5% visible
METAR KSZL 101158Z 23005KT 10SM BKN049 OVC100 M07/M11 A3016 RMK AO2A SLP228 T10681109 11062 21084 58009

10-Day Weather Forecast

Almanac

Astronomy

Feb. 10, 2016 Rise Set
Actual Time
Civil Twilight
Nautical Twilight
Astronomical Twilight
Moon
Length of Visible Light
Length of Day
Tomorrow will be .
, % of the Moon is Illuminated

Today's Extremes

State Highs State Lows

Community

WunderPhotos

Upload Photos

1,891,834 photos uploaded!

WunderBlog® & News

Nearby

Air Quality

  Air Quality AQ Index Pollutant
Not available.

Snow Depth

Station Depth Elevation

Earthquake Activity

City Distance Mag. Time & Date
Minimum magnitude displayed is 2.5.

Coastal Water Temperatures

Place Temperature

Stations

Nearby Weather Stations

Station Location Temp. Windchill Dew Point Humidity Wind Precip. Elev Updated Type
                   

Watches & Warnings

There are currently no watches in effect.